createdAt,value
2022-11-22T00:00:25.732Z,35.58
2022-11-22T00:02:30.627Z,34.25
2022-11-22T00:04:35.864Z,36.72
2022-11-22T00:06:41.121Z,32.78
2022-11-22T00:08:45.545Z,33.45
2022-11-22T00:10:52.516Z,35.30
2022-11-22T00:12:57.139Z,31.08
2022-11-22T00:15:02.177Z,33.28
2022-11-22T00:17:09.061Z,32.35
2022-11-22T00:19:13.597Z,35.63
2022-11-22T00:21:17.875Z,38.38
2022-11-22T00:23:22.770Z,30.90
2022-11-22T00:25:27.413Z,33.50
2022-11-22T00:27:33.971Z,34.58
2022-11-22T00:29:39.250Z,36.47
2022-11-22T00:31:44.165Z,39.88
2022-11-22T00:33:48.707Z,41.25
2022-11-22T00:35:53.309Z,35.85
2022-11-22T00:37:57.663Z,46.90
2022-11-22T00:40:02.448Z,39.83
2022-11-22T00:42:11.154Z,40.08
2022-11-22T00:44:17.379Z,47.28
2022-11-22T00:46:21.789Z,49.13
2022-11-22T00:48:26.053Z,48.20
2022-11-22T00:50:33.330Z,47.30
2022-11-22T00:52:37.927Z,46.00
2022-11-22T00:54:42.273Z,46.10
2022-11-22T00:56:46.872Z,56.15
2022-11-22T00:58:53.732Z,51.25
2022-11-22T01:00:59.444Z,60.00
2022-11-22T01:03:03.957Z,50.72
2022-11-22T01:05:09.148Z,44.90
2022-11-22T01:07:13.808Z,54.25
2022-11-22T01:09:20.470Z,48.38
2022-11-22T01:11:25.217Z,52.60
2022-11-22T01:13:31.547Z,43.25
2022-11-22T01:15:37.024Z,51.33
2022-11-22T01:17:42.830Z,44.28
2022-11-22T01:19:47.925Z,47.80
2022-11-22T01:21:52.485Z,49.58
2022-11-22T01:23:58.172Z,42.35
2022-11-22T01:26:02.511Z,43.33
2022-11-22T01:28:07.000Z,49.50
2022-11-22T01:30:12.116Z,44.72
2022-11-22T01:32:16.521Z,42.50
2022-11-22T01:34:23.092Z,45.83
2022-11-22T01:36:27.365Z,42.95
2022-11-22T01:38:32.684Z,43.70
2022-11-22T01:40:37.315Z,42.08
2022-11-22T01:42:45.233Z,45.67
2022-11-22T01:44:52.606Z,43.28
2022-11-22T01:47:00.701Z,44.03
2022-11-22T01:49:08.184Z,37.35
2022-11-22T01:51:21.371Z,42.45
2022-11-22T01:53:29.816Z,42.22
2022-11-22T01:55:34.930Z,41.50
2022-11-22T01:57:42.318Z,37.42
2022-11-22T01:59:51.894Z,35.80
2022-11-22T02:01:57.195Z,39.45
2022-11-22T02:04:06.077Z,44.28
2022-11-22T02:06:11.010Z,38.90
2022-11-22T02:08:24.568Z,41.17
2022-11-22T02:10:33.752Z,44.15
2022-11-22T02:12:38.670Z,41.53
2022-11-22T02:14:43.505Z,42.50
2022-11-22T02:16:49.412Z,43.78
2022-11-22T02:18:54.315Z,41.45
2022-11-22T02:20:59.965Z,41.83
2022-11-22T02:23:10.603Z,40.92
2022-11-22T02:25:23.701Z,41.35
2022-11-22T02:27:29.908Z,46.92
2022-11-22T02:29:35.112Z,43.15
2022-11-22T02:31:44.074Z,48.80
2022-11-22T02:33:51.732Z,48.72
2022-11-22T02:35:56.852Z,56.30
2022-11-22T02:38:05.009Z,50.95
2022-11-22T02:40:13.292Z,53.78
2022-11-22T02:42:19.062Z,59.63
2022-11-22T02:44:25.734Z,55.17
2022-11-22T02:46:30.262Z,47.00
2022-11-22T02:48:34.578Z,57.85
2022-11-22T02:50:39.816Z,53.25
2022-11-22T02:52:44.256Z,52.50
2022-11-22T02:54:49.585Z,50.38
2022-11-22T02:57:11.152Z,47.05
2022-11-22T02:59:22.621Z,52.45
2022-11-22T03:01:28.686Z,44.35
2022-11-22T03:03:34.772Z,41.40
2022-11-22T03:05:39.533Z,44.13
2022-11-22T03:07:43.722Z,45.70
2022-11-22T03:09:48.024Z,45.78
2022-11-22T03:11:52.637Z,42.13
2022-11-22T03:13:56.963Z,41.95
2022-11-22T03:16:02.771Z,40.92
2022-11-22T03:18:08.776Z,41.53
2022-11-22T03:20:14.199Z,38.67
2022-11-22T03:22:18.434Z,39.88
2022-11-22T03:24:22.873Z,38.45
2022-11-22T03:26:28.155Z,38.00
2022-11-22T03:28:33.523Z,39.75
2022-11-22T03:30:42.227Z,40.78
2022-11-22T03:32:46.800Z,40.05
2022-11-22T03:34:52.751Z,44.92
2022-11-22T03:36:57.164Z,39.28
2022-11-22T03:39:01.786Z,37.35
2022-11-22T03:41:06.324Z,51.10
2022-11-22T03:43:10.810Z,41.10
2022-11-22T03:45:15.946Z,43.10
2022-11-22T03:47:22.204Z,40.85
2022-11-22T03:49:26.494Z,41.80
2022-11-22T03:51:32.818Z,34.95
2022-11-22T03:53:37.201Z,39.72
2022-11-22T03:55:41.616Z,40.88
2022-11-22T03:57:46.420Z,41.20
2022-11-22T03:59:51.244Z,42.03
2022-11-22T04:01:57.414Z,38.05
2022-11-22T04:04:03.201Z,41.10
2022-11-22T04:06:07.664Z,46.33
2022-11-22T04:08:15.084Z,39.80
2022-11-22T04:10:22.385Z,36.75
2022-11-22T04:12:26.911Z,36.63
2022-11-22T04:14:48.369Z,40.40
2022-11-22T04:16:53.105Z,36.05
2022-11-22T04:19:00.032Z,46.95
2022-11-22T04:21:21.897Z,39.60
2022-11-22T04:23:33.842Z,41.42
2022-11-22T04:25:40.224Z,38.85
2022-11-22T04:27:44.769Z,42.20
2022-11-22T04:29:49.890Z,41.30
2022-11-22T04:32:11.549Z,42.33
2022-11-22T04:34:15.942Z,45.42
2022-11-22T04:36:20.566Z,46.75
2022-11-22T04:38:27.449Z,50.38
2022-11-22T04:40:32.064Z,42.85
2022-11-22T04:43:13.316Z,42.28
2022-11-22T04:45:17.670Z,43.42
2022-11-22T04:47:39.333Z,46.00
2022-11-22T04:49:43.941Z,41.33
2022-11-22T04:52:06.488Z,44.78
2022-11-22T04:54:12.388Z,39.47
2022-11-22T04:56:17.259Z,43.97
2022-11-22T04:58:22.251Z,42.85
2022-11-22T05:00:27.666Z,43.50
2022-11-22T05:02:32.136Z,41.55
2022-11-22T05:04:36.492Z,45.75
2022-11-22T05:06:42.505Z,37.85
2022-11-22T05:08:46.885Z,43.65
2022-11-22T05:10:58.445Z,39.88
2022-11-22T05:13:04.272Z,39.88
2022-11-22T05:15:09.765Z,35.47
2022-11-22T05:17:14.091Z,36.53
2022-11-22T05:19:18.357Z,35.70
2022-11-22T05:21:23.002Z,36.05
2022-11-22T05:23:45.059Z,34.58
2022-11-22T05:25:52.345Z,34.85
2022-11-22T05:27:58.204Z,34.20
2022-11-22T05:30:02.756Z,35.33
2022-11-22T05:32:07.771Z,33.83
2022-11-22T05:34:11.995Z,33.83
2022-11-22T05:36:16.474Z,28.98
2022-11-22T05:38:21.397Z,31.00
2022-11-22T05:40:26.013Z,32.78
2022-11-22T05:42:31.828Z,30.70
2022-11-22T05:44:36.643Z,31.38
2022-11-22T05:46:40.965Z,37.80
2022-11-22T05:48:47.996Z,40.20
2022-11-22T05:50:52.269Z,33.28
2022-11-22T05:52:57.038Z,38.90
2022-11-22T05:55:06.525Z,37.13
2022-11-22T05:57:10.771Z,36.63
2022-11-22T05:59:16.489Z,33.03
2022-11-22T06:01:23.049Z,41.03
2022-11-22T06:03:32.537Z,38.63
2022-11-22T06:05:37.413Z,42.10
2022-11-22T06:07:41.988Z,39.85
2022-11-22T06:09:46.342Z,43.97
2022-11-22T06:11:50.888Z,44.20
2022-11-22T06:14:00.494Z,45.60
2022-11-22T06:16:07.283Z,46.35
2022-11-22T06:18:12.000Z,45.22
2022-11-22T06:20:18.018Z,43.95
2022-11-22T06:22:22.684Z,43.13
2022-11-22T06:24:27.975Z,39.00
2022-11-22T06:26:38.844Z,39.50
2022-11-22T06:28:49.499Z,46.17
2022-11-22T06:30:55.357Z,40.42
2022-11-22T06:33:01.667Z,43.72
2022-11-22T06:35:06.496Z,39.35
2022-11-22T06:37:12.257Z,40.65
2022-11-22T06:39:18.093Z,41.95
2022-11-22T06:41:24.981Z,41.90
2022-11-22T06:43:30.503Z,47.00
2022-11-22T06:45:38.511Z,44.70
2022-11-22T06:47:47.039Z,38.63
2022-11-22T06:49:54.374Z,37.42
2022-11-22T06:52:01.745Z,42.55
2022-11-22T06:54:06.793Z,53.65
2022-11-22T06:56:14.665Z,59.63
2022-11-22T06:58:19.839Z,92.68
2022-11-22T07:00:25.253Z,75.07
2022-11-22T07:02:33.559Z,68.32
2022-11-22T07:05:02.178Z,64.40
2022-11-22T07:07:11.295Z,52.13
2022-11-22T07:09:16.072Z,41.38
2022-11-22T07:11:22.912Z,42.85
2022-11-22T07:13:28.827Z,41.50
2022-11-22T07:15:33.714Z,37.80
2022-11-22T07:17:38.939Z,44.10
2022-11-22T07:19:44.435Z,43.58
2022-11-22T07:21:49.985Z,47.22
2022-11-22T07:23:58.214Z,43.53
2022-11-22T07:26:03.126Z,43.97
2022-11-22T07:28:09.542Z,45.20
2022-11-22T07:30:15.948Z,47.65
2022-11-22T07:32:21.935Z,39.90
2022-11-22T07:34:27.714Z,43.97
2022-11-22T07:36:38.876Z,45.22
2022-11-22T07:38:45.936Z,43.22
2022-11-22T07:40:52.296Z,44.50
2022-11-22T07:42:59.267Z,46.70
2022-11-22T07:45:05.723Z,47.40
2022-11-22T07:47:10.855Z,49.92
2022-11-22T07:49:15.512Z,46.20
2022-11-22T07:51:21.316Z,46.03
2022-11-22T07:53:27.116Z,43.67
2022-11-22T07:55:34.355Z,45.25
2022-11-22T07:57:41.328Z,45.22
2022-11-22T07:59:46.214Z,47.70
2022-11-22T08:01:51.662Z,45.30
2022-11-22T08:03:56.766Z,42.63
2022-11-22T08:06:08.135Z,44.75
2022-11-22T08:08:12.933Z,51.28
2022-11-22T08:10:18.014Z,47.22
2022-11-22T08:12:22.335Z,47.58
2022-11-22T08:14:30.393Z,53.08
2022-11-22T08:16:34.772Z,46.50
2022-11-22T08:18:43.177Z,46.80
2022-11-22T08:20:49.271Z,48.97
2022-11-22T08:22:54.194Z,47.00
2022-11-22T08:24:59.358Z,48.45
2022-11-22T08:27:05.044Z,53.58
2022-11-22T08:29:14.349Z,43.60
2022-11-22T08:31:21.953Z,44.83
2022-11-22T08:33:26.685Z,53.15
2022-11-22T08:35:33.559Z,56.70
2022-11-22T08:37:41.488Z,49.13
2022-11-22T08:39:48.951Z,51.03
2022-11-22T08:41:57.338Z,52.92
2022-11-22T08:44:04.214Z,54.55
2022-11-22T08:46:11.169Z,48.63
2022-11-22T08:48:22.074Z,47.47
2022-11-22T08:50:29.034Z,47.13
2022-11-22T08:52:36.420Z,48.15
2022-11-22T08:54:42.313Z,49.90
2022-11-22T08:56:49.564Z,49.25
2022-11-22T08:58:55.202Z,47.70
2022-11-22T09:01:04.857Z,46.88
2022-11-22T09:03:11.017Z,48.53
2022-11-22T09:05:23.019Z,44.03
2022-11-22T09:10:06.251Z,45.65
2022-11-22T09:12:12.667Z,46.93
2022-11-22T09:14:19.235Z,47.95
2022-11-22T09:16:24.284Z,45.85
2022-11-22T09:18:28.978Z,47.70
2022-11-22T09:20:35.297Z,44.03
2022-11-22T09:22:55.585Z,47.95
2022-11-22T09:25:05.788Z,45.30
2022-11-22T09:27:11.084Z,43.37
2022-11-22T09:29:17.697Z,43.33
2022-11-22T09:31:27.074Z,46.47
2022-11-22T09:33:39.908Z,43.28
2022-11-22T09:35:46.926Z,48.28
2022-11-22T09:38:06.438Z,41.83
2022-11-22T09:46:29.726Z,50.70
2022-11-22T09:52:14.166Z,51.10
2022-11-22T09:59:24.142Z,48.40
2022-11-22T10:02:18.362Z,46.33
2022-11-22T10:07:28.097Z,45.72
2022-11-22T10:09:45.717Z,44.08
2022-11-22T10:12:09.584Z,44.17
2022-11-22T10:14:48.330Z,45.58
2022-11-22T10:20:09.034Z,47.28
2022-11-22T10:22:15.113Z,42.45
2022-11-22T10:24:20.634Z,48.97
2022-11-22T10:26:41.476Z,51.97
2022-11-22T10:28:56.390Z,48.90
2022-11-22T10:31:10.453Z,53.70
2022-11-22T10:33:22.020Z,49.88
2022-11-22T10:35:54.684Z,44.50
2022-11-22T10:38:09.328Z,47.22
2022-11-22T10:40:26.314Z,46.88
2022-11-22T10:42:59.090Z,45.83
2022-11-22T10:45:08.422Z,50.58
2022-11-22T10:47:33.002Z,50.55
2022-11-22T10:49:56.028Z,49.88
2022-11-22T10:52:11.512Z,49.92
2022-11-22T10:54:21.535Z,47.13
2022-11-22T10:58:43.247Z,51.47
2022-11-22T11:00:59.975Z,50.67
2022-11-22T11:03:26.091Z,48.08
2022-11-22T11:05:37.512Z,49.90
2022-11-22T11:08:29.671Z,46.28
2022-11-22T11:10:40.590Z,47.28
2022-11-22T11:12:50.099Z,47.60
2022-11-22T11:15:08.639Z,48.22
2022-11-22T11:17:18.500Z,48.25
2022-11-22T11:19:30.052Z,46.65
2022-11-22T11:21:34.380Z,46.55
2022-11-22T11:23:41.163Z,51.08
2022-11-22T11:25:47.516Z,52.13
2022-11-22T11:27:53.316Z,52.58
2022-11-22T11:30:02.910Z,49.13
2022-11-22T11:32:13.534Z,50.28
2022-11-22T11:34:24.243Z,44.67
2022-11-22T11:36:34.256Z,51.25
2022-11-22T11:38:51.810Z,49.58
2022-11-22T11:40:56.709Z,51.70
2022-11-22T11:43:22.201Z,52.17
2022-11-22T11:45:33.155Z,50.58
2022-11-22T11:47:37.818Z,52.72
2022-11-22T11:49:52.863Z,46.85
2022-11-22T11:52:03.393Z,50.35
2022-11-22T11:54:17.482Z,54.22
2022-11-22T11:56:46.506Z,51.40
2022-11-22T11:58:57.322Z,54.90
2022-11-22T12:01:02.332Z,55.83
2022-11-22T12:03:13.863Z,53.47
2022-11-22T12:05:28.951Z,58.28
2022-11-22T12:07:44.618Z,55.50
2022-11-22T12:09:52.821Z,53.42
2022-11-22T12:12:04.499Z,58.05
2022-11-22T12:14:20.243Z,60.10
2022-11-22T12:16:31.308Z,57.83
2022-11-22T12:18:44.616Z,58.60
2022-11-22T12:20:59.304Z,52.22
2022-11-22T12:23:20.731Z,55.40
2022-11-22T12:25:33.945Z,64.35
2022-11-22T12:27:38.450Z,60.97
2022-11-22T12:29:45.186Z,52.85
2022-11-22T12:31:54.213Z,74.13
2022-11-22T12:34:03.484Z,67.93
2022-11-22T12:36:16.525Z,58.30
2022-11-22T12:38:25.525Z,59.22
2022-11-22T12:40:44.520Z,58.47
2022-11-22T12:42:51.819Z,53.20
2022-11-22T12:45:00.605Z,53.45
2022-11-22T12:47:10.288Z,53.90
2022-11-22T12:49:25.635Z,56.88
2022-11-22T12:51:37.495Z,54.13
2022-11-22T12:53:47.402Z,54.08
2022-11-22T12:56:00.336Z,51.15
2022-11-22T12:58:16.421Z,51.05
2022-11-22T13:00:23.412Z,52.58
2022-11-22T13:02:33.700Z,55.90
2022-11-22T13:04:47.743Z,56.42
2022-11-22T13:06:56.480Z,54.90
2022-11-22T13:09:04.655Z,61.22
2022-11-22T13:11:16.726Z,56.60
2022-11-22T13:13:27.153Z,53.13
2022-11-22T13:15:33.924Z,61.97
2022-11-22T13:17:39.384Z,59.50
2022-11-22T13:19:51.773Z,60.78
2022-11-22T13:22:10.580Z,56.25
2022-11-22T13:24:37.480Z,60.53
2022-11-22T13:26:55.306Z,52.30
2022-11-22T13:29:16.871Z,49.53
2022-11-22T13:31:21.839Z,56.45
2022-11-22T13:33:28.149Z,50.00
2022-11-22T13:35:34.870Z,58.33
2022-11-22T13:37:43.447Z,56.92
2022-11-22T13:39:51.633Z,71.43
2022-11-22T13:42:04.765Z,62.25
2022-11-22T13:44:27.316Z,63.60
2022-11-22T13:47:03.419Z,68.72
2022-11-22T13:49:15.705Z,70.75
2022-11-22T13:51:54.485Z,62.38
2022-11-22T13:54:39.840Z,75.53
2022-11-22T13:57:01.838Z,69.35
2022-11-22T13:59:16.372Z,59.40
2022-11-22T14:01:58.012Z,64.43
2022-11-22T14:04:21.621Z,57.25
2022-11-22T14:06:33.582Z,56.03
2022-11-22T14:08:41.777Z,57.35
2022-11-22T14:11:18.142Z,67.30
2022-11-22T14:13:41.401Z,58.55
2022-11-22T14:16:23.461Z,65.25
2022-11-22T14:18:58.700Z,64.13
2022-11-22T14:21:53.908Z,63.40
2022-11-22T14:24:07.146Z,69.57
2022-11-22T14:26:21.332Z,70.32
2022-11-22T14:29:00.857Z,63.17
2022-11-22T14:31:15.788Z,67.55
2022-11-22T14:33:23.029Z,72.20
2022-11-22T14:35:35.365Z,66.35
2022-11-22T14:37:48.676Z,74.25
2022-11-22T14:40:17.667Z,70.05
2022-11-22T14:42:48.380Z,77.68
2022-11-22T14:44:55.442Z,72.00
2022-11-22T14:47:08.013Z,72.18
2022-11-22T14:49:17.812Z,71.07
2022-11-22T14:51:32.074Z,81.18
2022-11-22T14:53:40.567Z,82.40
2022-11-22T14:55:45.698Z,71.80
2022-11-22T14:57:59.836Z,73.80
2022-11-22T15:00:17.938Z,72.57
2022-11-22T15:03:07.882Z,72.65
2022-11-22T15:09:13.165Z,76.75
2022-11-22T15:09:23.398Z,77.32
2022-11-22T15:11:00.238Z,76.68
2022-11-22T15:13:28.027Z,78.10
2022-11-22T15:58:25.931Z,88.43
2022-11-22T16:00:31.291Z,80.15
2022-11-22T16:02:48.917Z,85.65
2022-11-22T16:06:06.775Z,81.65
2022-11-22T16:07:30.139Z,89.05
2022-11-22T16:09:38.905Z,88.57
2022-11-22T16:11:43.571Z,86.28
2022-11-22T16:13:49.174Z,81.78
2022-11-22T16:16:07.771Z,85.30
2022-11-22T16:18:23.491Z,85.45
2022-11-22T16:20:32.422Z,88.63
2022-11-22T16:22:39.149Z,86.75
2022-11-22T16:24:43.705Z,94.07
2022-11-22T16:26:58.664Z,84.88
2022-11-22T16:29:26.280Z,77.55
2022-11-22T16:31:33.479Z,83.72
2022-11-22T16:33:40.926Z,79.43
2022-11-22T16:35:47.382Z,86.25
2022-11-22T16:37:51.970Z,96.03
2022-11-22T16:39:56.781Z,121.97
2022-11-22T16:42:01.670Z,168.00
2022-11-22T16:44:13.186Z,111.07
2022-11-22T16:46:18.794Z,101.55
2022-11-22T16:48:33.978Z,118.63
2022-11-22T16:50:42.095Z,129.68
2022-11-22T16:52:47.715Z,106.82
2022-11-22T16:54:52.939Z,94.85
2022-11-22T16:56:58.113Z,98.45
2022-11-22T16:59:06.547Z,83.38
2022-11-22T17:01:17.403Z,93.13
2022-11-22T17:03:24.575Z,84.45
2022-11-22T17:05:29.660Z,93.80
2022-11-22T17:07:36.654Z,90.63
2022-11-22T17:09:41.564Z,96.38
2022-11-22T17:11:48.291Z,87.30
2022-11-22T17:13:54.414Z,91.43
2022-11-22T17:15:59.354Z,95.63
2022-11-22T17:18:05.084Z,90.90
2022-11-22T17:20:10.452Z,89.22
2022-11-22T17:22:16.822Z,92.07
2022-11-22T17:24:24.072Z,89.20
2022-11-22T17:26:29.310Z,94.30
2022-11-22T17:28:35.363Z,96.65
2022-11-22T17:30:40.204Z,98.35
2022-11-22T17:32:44.608Z,94.13
2022-11-22T17:34:49.232Z,92.78
2022-11-22T17:36:54.808Z,92.00
2022-11-22T17:39:02.665Z,100.63
2022-11-22T17:41:09.601Z,98.60
2022-11-22T17:43:14.970Z,93.22
2022-11-22T17:45:19.304Z,93.28
2022-11-22T17:47:23.795Z,92.60
2022-11-22T17:49:29.218Z,82.32
2022-11-22T17:51:36.326Z,82.93
2022-11-22T17:53:41.005Z,83.70
2022-11-22T17:56:09.523Z,83.60
2022-11-22T17:58:11.598Z,86.45
2022-11-22T18:00:17.608Z,83.47
2022-11-22T18:02:22.076Z,83.13
2022-11-22T18:04:27.771Z,86.93
2022-11-22T18:06:32.264Z,81.60
2022-11-22T18:08:50.960Z,93.40
2022-11-22T18:10:58.721Z,84.88
2022-11-22T18:13:20.772Z,99.88
2022-11-22T18:15:27.999Z,104.05
2022-11-22T18:17:36.757Z,85.00
2022-11-22T18:19:41.540Z,115.35
2022-11-22T18:21:47.814Z,104.20
2022-11-22T18:23:53.193Z,84.65
2022-11-22T18:26:42.503Z,86.88
2022-11-22T18:29:02.455Z,79.78
2022-11-22T18:31:12.854Z,74.70
2022-11-22T18:33:18.611Z,77.10
2022-11-22T18:35:23.853Z,68.45
2022-11-22T18:37:28.104Z,68.28
2022-11-22T18:39:34.543Z,68.18
2022-11-22T18:41:40.022Z,66.22
2022-11-22T18:43:44.502Z,69.07
2022-11-22T18:45:48.797Z,74.30
2022-11-22T18:47:54.506Z,67.30
2022-11-22T18:49:59.526Z,71.00
2022-11-22T18:52:04.454Z,68.18
2022-11-22T18:54:11.334Z,68.43
2022-11-22T18:56:17.383Z,62.90
2022-11-22T18:58:21.817Z,65.35
2022-11-22T19:00:26.676Z,66.78
2022-11-22T19:02:31.428Z,66.18
2022-11-22T19:04:37.305Z,58.35
2022-11-22T19:06:42.296Z,62.92
2022-11-22T19:08:48.644Z,62.22
2022-11-22T19:10:58.400Z,62.78
2022-11-22T19:13:03.615Z,63.58
2022-11-22T19:15:09.340Z,60.15
2022-11-22T19:17:18.588Z,52.85
2022-11-22T19:19:27.115Z,58.88
2022-11-22T19:21:34.355Z,61.95
2022-11-22T19:23:40.271Z,71.05
2022-11-22T19:25:46.091Z,55.58
2022-11-22T19:27:50.568Z,67.55
2022-11-22T19:29:56.222Z,57.65
2022-11-22T19:32:01.313Z,67.30
2022-11-22T19:34:06.745Z,61.55
2022-11-22T19:36:14.601Z,63.05
2022-11-22T19:38:22.238Z,66.63
2022-11-22T19:40:26.870Z,71.57
2022-11-22T19:42:33.764Z,69.68
2022-11-22T19:44:38.998Z,90.57
2022-11-22T19:46:46.390Z,70.25
2022-11-22T19:48:54.557Z,85.53
2022-11-22T19:51:01.341Z,82.97
2022-11-22T19:53:07.157Z,100.55
2022-11-22T19:55:13.789Z,72.75
2022-11-22T19:57:18.372Z,100.80
2022-11-22T19:59:22.715Z,105.57
2022-11-22T20:01:28.724Z,97.93
2022-11-22T20:03:33.585Z,83.43
2022-11-22T20:05:38.873Z,78.85
2022-11-22T20:07:47.325Z,96.65
2022-11-22T20:09:55.089Z,97.13
2022-11-22T20:12:04.615Z,81.75
2022-11-22T20:14:11.242Z,82.43
2022-11-22T20:16:21.252Z,89.88
2022-11-22T20:18:28.032Z,73.43
2022-11-22T20:20:38.116Z,72.72
2022-11-22T20:22:47.153Z,70.90
2022-11-22T20:24:57.397Z,69.93
2022-11-22T20:27:19.206Z,68.43
2022-11-22T20:29:30.792Z,72.20
2022-11-22T20:31:38.074Z,78.40
2022-11-22T20:33:46.288Z,73.00
2022-11-22T20:35:56.103Z,78.78
2022-11-22T20:38:03.920Z,74.85
2022-11-22T20:40:15.175Z,89.90
2022-11-22T20:42:34.197Z,83.57
2022-11-22T20:44:42.104Z,73.00
2022-11-22T20:46:49.059Z,84.65
2022-11-22T20:49:08.380Z,73.53
2022-11-22T20:51:17.034Z,71.82
2022-11-22T20:53:36.346Z,71.47
2022-11-22T20:55:43.381Z,65.93
2022-11-22T20:57:51.328Z,71.65
2022-11-22T20:59:56.045Z,69.95
2022-11-22T21:02:02.964Z,64.35
2022-11-22T21:04:12.158Z,64.95
2022-11-22T21:06:17.995Z,71.38
2022-11-22T21:08:23.947Z,58.13
2022-11-22T21:10:30.362Z,68.55
2022-11-22T21:12:35.009Z,67.95
2022-11-22T21:14:40.844Z,67.15
2022-11-22T21:16:45.436Z,69.78
2022-11-22T21:18:52.164Z,63.30
2022-11-22T21:21:02.856Z,58.08
2022-11-22T21:23:07.306Z,64.22
2022-11-22T21:25:12.209Z,74.15
2022-11-22T21:27:16.993Z,60.17
2022-11-22T21:29:21.756Z,63.05
2022-11-22T21:31:31.334Z,67.50
2022-11-22T21:33:38.085Z,82.13
2022-11-22T21:35:45.791Z,67.40
2022-11-22T21:37:54.877Z,83.85
2022-11-22T21:39:59.841Z,73.35
2022-11-22T21:42:04.268Z,77.05
2022-11-22T21:44:08.722Z,67.72
2022-11-22T21:46:13.317Z,80.30
2022-11-22T21:48:19.625Z,79.93
2022-11-22T21:50:25.310Z,67.75
2022-11-22T21:52:29.523Z,70.85
2022-11-22T21:54:34.217Z,64.97
2022-11-22T21:56:38.859Z,65.18
2022-11-22T21:58:44.287Z,66.95
2022-11-22T22:00:50.139Z,73.05
2022-11-22T22:02:54.868Z,85.40
2022-11-22T22:05:04.009Z,77.60
2022-11-22T22:07:29.530Z,86.85
2022-11-22T22:09:34.211Z,70.55
2022-11-22T22:11:41.839Z,69.40
2022-11-22T22:13:46.536Z,81.25
2022-11-22T22:15:50.880Z,76.93
2022-11-22T22:17:55.385Z,74.75
2022-11-22T22:20:03.146Z,81.57
2022-11-22T22:22:07.644Z,72.28
2022-11-22T22:24:13.044Z,67.05
2022-11-22T22:26:18.668Z,67.35
2022-11-22T22:28:24.203Z,73.43
2022-11-22T22:30:28.482Z,61.05
2022-11-22T22:32:32.796Z,66.88
2022-11-22T22:34:37.416Z,66.07
2022-11-22T22:36:43.345Z,70.10
2022-11-22T22:38:47.626Z,65.10
2022-11-22T22:40:54.975Z,69.90
2022-11-22T22:42:59.588Z,66.30
2022-11-22T22:45:05.207Z,64.45
2022-11-22T22:47:09.484Z,73.90
2022-11-22T22:49:13.764Z,71.45
2022-11-22T22:51:19.340Z,66.03
2022-11-22T22:53:27.902Z,64.68
2022-11-22T22:55:32.575Z,69.55
2022-11-22T22:57:37.065Z,70.57
2022-11-22T22:59:41.776Z,70.60
2022-11-22T23:01:46.112Z,64.85
2022-11-22T23:03:50.877Z,59.40
2022-11-22T23:05:56.625Z,70.63
2022-11-22T23:08:01.290Z,69.03
2022-11-22T23:10:08.419Z,60.80
2022-11-22T23:12:12.837Z,67.22
2022-11-22T23:14:23.039Z,65.78
2022-11-22T23:16:27.511Z,73.97
2022-11-22T23:18:32.101Z,73.22
2022-11-22T23:20:36.558Z,75.03
2022-11-22T23:22:40.868Z,78.93
2022-11-22T23:24:45.244Z,78.97
2022-11-22T23:26:50.981Z,72.15
2022-11-22T23:28:55.552Z,68.93
2022-11-22T23:31:05.940Z,69.65
2022-11-22T23:33:10.119Z,69.15
2022-11-22T23:35:14.440Z,63.90
2022-11-22T23:37:18.743Z,72.90
2022-11-22T23:39:23.469Z,75.18
2022-11-22T23:41:28.514Z,72.70
2022-11-22T23:43:34.263Z,66.03
2022-11-22T23:45:38.539Z,67.43
2022-11-22T23:47:42.729Z,79.43
2022-11-22T23:49:46.977Z,76.18
2022-11-22T23:51:51.859Z,68.75
2022-11-22T23:53:57.266Z,68.05
2022-11-22T23:56:06.507Z,69.88
2022-11-22T23:58:11.113Z,67.97
